createdAt,value
2023-04-24T14:09:33.927Z,3.60
2023-04-24T14:10:36.644Z,3.80
2023-04-24T14:11:38.915Z,5.20
2023-04-24T14:12:41.292Z,2.80
2023-04-24T14:13:43.508Z,3.00
2023-04-24T14:14:48.058Z,3.20
2023-04-24T14:15:50.373Z,1.40
2023-04-24T14:16:54.601Z,5.40
2023-04-24T14:17:56.885Z,7.20
2023-04-24T14:18:59.983Z,8.50
2023-04-24T14:20:02.483Z,6.00
2023-04-24T14:21:05.169Z,5.70
2023-04-24T14:22:07.255Z,4.40
2023-04-24T14:23:09.388Z,7.30
2023-04-24T14:24:11.814Z,5.40
2023-04-24T14:25:14.052Z,6.70
2023-04-24T14:26:16.274Z,6.40
2023-04-24T14:27:18.377Z,6.30
2023-04-24T14:28:20.874Z,6.10
2023-04-24T14:29:22.893Z,4.20
2023-04-24T14:30:25.488Z,6.50
2023-04-24T14:31:27.804Z,7.00
2023-04-24T14:32:30.100Z,4.50
2023-04-24T14:33:33.332Z,4.10
2023-04-24T14:34:35.576Z,5.00
2023-04-24T14:35:37.782Z,4.20
2023-04-24T14:36:40.105Z,5.20
2023-04-24T14:37:42.184Z,2.40
2023-04-24T14:38:44.312Z,3.50
2023-04-24T14:39:56.165Z,0.70
2023-04-24T14:42:36.067Z,5.40
2023-04-24T14:43:38.451Z,3.90
2023-04-24T14:44:40.584Z,3.40
2023-04-24T14:45:42.623Z,4.10
2023-04-24T14:46:44.714Z,3.80
2023-04-24T14:47:47.206Z,3.70
2023-04-24T14:48:51.303Z,4.30
2023-04-24T14:49:53.951Z,3.70
2023-04-24T14:50:56.305Z,4.36
2023-04-24T14:51:58.432Z,3.70
2023-04-24T14:53:00.865Z,3.90
2023-04-24T14:54:03.400Z,7.50
2023-04-24T14:55:09.312Z,5.90
2023-04-24T14:56:11.549Z,7.50
2023-04-24T14:57:16.356Z,7.40
2023-04-24T14:58:18.790Z,3.30
2023-04-24T14:59:20.918Z,5.10
2023-04-24T15:00:23.539Z,6.40
2023-04-24T15:01:25.569Z,6.10
2023-04-24T15:02:27.889Z,7.80
2023-04-24T15:03:31.041Z,3.82
2023-04-24T15:04:34.614Z,8.10
2023-04-24T15:05:37.680Z,5.09
2023-04-24T15:06:40.328Z,6.80
2023-04-24T15:07:42.428Z,3.30
2023-04-24T15:08:44.616Z,8.40
2023-04-24T15:09:46.840Z,7.80
2023-04-24T15:10:48.870Z,8.00
2023-04-24T15:11:52.404Z,6.80
2023-04-24T15:12:54.715Z,7.80
2023-04-24T15:13:57.356Z,8.40
2023-04-24T15:14:59.430Z,6.30
2023-04-24T15:16:01.580Z,6.70
2023-04-24T15:17:04.389Z,4.40
2023-04-24T15:18:10.245Z,4.60
2023-04-24T15:19:12.338Z,8.10
2023-04-24T15:20:15.804Z,7.00
2023-04-24T15:21:17.976Z,6.10
2023-04-24T15:22:20.074Z,5.60
2023-04-24T15:23:22.172Z,6.00
2023-04-24T15:24:24.403Z,6.30
2023-04-24T15:25:26.684Z,6.90
2023-04-24T15:26:29.116Z,7.40
2023-04-24T15:27:43.687Z,6.30
2023-04-24T15:28:45.852Z,7.00
2023-04-24T15:29:47.940Z,3.20
2023-04-24T15:30:50.042Z,5.70
2023-04-24T15:31:52.184Z,7.10
2023-04-24T15:32:54.302Z,0.00
2023-04-24T15:33:56.438Z,5.80
2023-04-24T15:35:07.803Z,5.20
2023-04-24T15:36:02.604Z,5.50
2023-04-24T15:37:04.608Z,5.80
2023-04-24T15:38:06.686Z,6.10
2023-04-24T15:39:09.692Z,5.00
2023-04-24T15:40:13.273Z,5.10
2023-04-24T15:41:15.588Z,4.00
2023-04-24T15:42:17.719Z,6.10
2023-04-24T15:43:19.763Z,6.20
2023-04-24T15:44:23.041Z,5.90
2023-04-24T15:45:25.536Z,4.80
2023-04-24T15:46:27.787Z,6.40
2023-04-24T15:47:29.898Z,5.40
2023-04-24T15:48:32.070Z,3.50
2023-04-24T15:49:34.115Z,5.80
2023-04-24T15:50:36.184Z,5.30
2023-04-24T15:51:39.830Z,5.80
2023-04-24T15:52:42.962Z,5.80
2023-04-24T15:53:45.586Z,4.00
2023-04-24T15:54:48.389Z,7.10
2023-04-24T15:55:51.579Z,6.50
2023-04-24T15:56:53.610Z,6.20
2023-04-24T15:57:55.848Z,3.90
2023-04-24T15:58:58.060Z,6.50
2023-04-24T16:00:00.082Z,6.20
2023-04-24T16:01:02.315Z,6.10
2023-04-24T16:02:04.529Z,4.70
2023-04-24T16:03:09.314Z,6.20
2023-04-24T16:04:10.931Z,5.60
2023-04-24T16:05:13.716Z,6.82
2023-04-24T16:06:15.997Z,2.20
2023-04-24T16:07:18.356Z,5.00
2023-04-24T16:08:22.476Z,6.40
2023-04-24T16:09:24.865Z,5.30
2023-04-24T16:10:29.048Z,6.00
2023-04-24T16:11:33.286Z,6.10
2023-04-24T16:12:35.474Z,5.80
2023-04-24T16:13:37.661Z,6.40
2023-04-24T16:14:39.789Z,5.30
2023-04-24T16:15:41.916Z,5.80
2023-04-24T16:16:45.481Z,3.00
2023-04-24T16:17:48.923Z,6.50
2023-04-24T16:18:51.975Z,3.40
2023-04-24T16:19:54.148Z,7.60
2023-04-24T16:20:57.280Z,7.10
2023-04-24T16:21:59.694Z,8.30
2023-04-24T16:23:01.795Z,7.20
2023-04-24T16:24:05.818Z,6.80
2023-04-24T16:25:11.024Z,5.70
2023-04-24T16:26:14.140Z,6.10
2023-04-24T16:27:16.260Z,6.90
2023-04-24T16:28:18.479Z,6.20
2023-04-24T16:29:20.673Z,6.00
2023-04-24T16:30:25.847Z,5.60
2023-04-24T16:31:28.133Z,5.90
2023-04-24T16:32:30.934Z,6.91
2023-04-24T16:33:33.317Z,6.90
2023-04-24T16:34:35.458Z,6.90
2023-04-24T16:35:37.571Z,5.90
2023-04-24T16:36:39.744Z,6.40
2023-04-24T16:37:41.952Z,5.50
2023-04-24T16:38:44.092Z,5.60
2023-04-24T16:39:46.310Z,4.40
2023-04-24T16:40:48.442Z,6.00
2023-04-24T16:41:50.730Z,4.70
2023-04-24T16:42:52.880Z,6.50
2023-04-24T16:43:54.970Z,6.30
2023-04-24T16:44:57.126Z,5.60
2023-04-24T16:45:59.169Z,6.80
2023-04-24T16:47:01.603Z,5.30
2023-04-24T16:48:07.244Z,7.09
2023-04-24T16:49:09.592Z,6.60
2023-04-24T16:50:12.092Z,6.40
2023-04-24T16:51:14.114Z,6.50
2023-04-24T16:52:16.228Z,6.50
2023-04-24T16:53:18.251Z,6.20
2023-04-24T16:54:20.388Z,6.70
2023-04-24T16:55:22.586Z,6.20
2023-04-24T16:56:24.752Z,7.10
2023-04-24T16:57:27.223Z,6.00
2023-04-24T16:58:29.877Z,6.30
2023-04-24T16:59:32.082Z,6.20
2023-04-24T17:00:34.601Z,5.40
2023-04-24T17:01:36.814Z,5.20
2023-04-24T17:02:39.188Z,6.70
2023-04-24T17:03:42.875Z,8.70
2023-04-24T17:04:45.647Z,5.70
2023-04-24T17:05:48.023Z,7.10
2023-04-24T17:06:50.083Z,6.70
2023-04-24T17:07:52.213Z,6.70
2023-04-24T17:08:54.361Z,7.90
2023-04-24T17:09:56.593Z,6.50
2023-04-24T17:10:58.821Z,9.50
2023-04-24T17:12:03.854Z,10.20
2023-04-24T17:13:06.957Z,11.20
2023-04-24T17:14:09.178Z,8.30
2023-04-24T17:15:12.641Z,7.70
2023-04-24T17:16:15.346Z,9.40
2023-04-24T17:17:17.546Z,7.90
2023-04-24T17:18:19.750Z,6.20
2023-04-24T17:19:22.124Z,7.70
2023-04-24T17:20:24.384Z,7.70
2023-04-24T17:21:28.765Z,9.20
2023-04-24T17:22:30.898Z,10.90
2023-04-24T17:23:33.044Z,11.10
2023-04-24T17:24:35.300Z,9.50
2023-04-24T17:25:37.525Z,9.80
2023-04-24T17:26:39.596Z,11.20
2023-04-24T17:27:41.785Z,10.50
2023-04-24T17:28:43.797Z,10.20
2023-04-24T17:29:46.092Z,9.80
2023-04-24T17:30:48.249Z,10.20
2023-04-24T17:31:50.460Z,12.40
2023-04-24T17:32:53.705Z,13.30
2023-04-24T17:33:56.759Z,12.60
2023-04-24T17:34:58.916Z,10.90
2023-04-24T17:36:01.389Z,11.00
2023-04-24T17:37:03.592Z,10.30
2023-04-24T17:38:05.795Z,11.20
2023-04-24T17:39:07.867Z,8.60
2023-04-24T17:40:13.117Z,11.60
2023-04-24T17:41:15.339Z,10.10
2023-04-24T17:42:17.468Z,11.80
2023-04-24T17:43:20.461Z,11.20
2023-04-24T17:44:22.617Z,10.60
2023-04-24T17:45:24.748Z,11.50
2023-04-24T17:46:26.982Z,10.00
2023-04-24T17:47:29.302Z,9.90
2023-04-24T17:48:31.365Z,9.22
2023-04-24T17:49:33.600Z,10.10
2023-04-24T17:50:35.680Z,10.30
2023-04-24T17:51:37.795Z,10.30
2023-04-24T17:52:40.037Z,8.40
2023-04-24T17:53:42.332Z,10.20
2023-04-24T17:54:44.545Z,9.90
2023-04-24T17:55:46.690Z,8.90
2023-04-24T17:56:48.862Z,8.10
2023-04-24T17:57:51.261Z,10.60
2023-04-24T17:58:53.376Z,8.50
2023-04-24T17:59:55.546Z,7.30
2023-04-24T18:00:58.739Z,7.90
2023-04-24T18:02:01.312Z,9.20
2023-04-24T18:03:04.199Z,8.70
2023-04-24T18:04:09.485Z,8.10
2023-04-24T18:05:12.173Z,7.30
2023-04-24T18:06:14.200Z,8.80
2023-04-24T18:07:17.676Z,7.60
2023-04-24T18:08:19.788Z,9.30
2023-04-24T18:09:21.649Z,7.78
2023-04-24T18:10:24.740Z,5.90
2023-04-24T18:11:26.840Z,7.40
2023-04-24T18:12:28.867Z,7.40
2023-04-24T18:13:31.029Z,8.10
2023-04-24T18:14:33.330Z,7.50
2023-04-24T18:15:36.985Z,7.10
2023-04-24T18:16:39.267Z,7.00
2023-04-24T18:17:41.271Z,6.10
2023-04-24T18:18:43.613Z,6.00
2023-04-24T18:19:45.721Z,7.30
2023-04-24T18:20:48.158Z,7.40
2023-04-24T18:21:50.867Z,8.90
2023-04-24T18:22:53.994Z,7.20
2023-04-24T18:23:56.132Z,9.50
2023-04-24T18:24:58.378Z,8.80
2023-04-24T18:26:00.513Z,8.40
2023-04-24T18:27:03.061Z,6.60
2023-04-24T18:28:04.960Z,8.40
2023-04-24T18:29:07.153Z,10.00
2023-04-24T18:30:14.860Z,9.60
2023-04-24T18:31:17.359Z,10.60
2023-04-24T18:32:19.971Z,8.20
2023-04-24T18:33:22.215Z,9.40
2023-04-24T18:34:24.458Z,9.60
2023-04-24T18:35:26.612Z,8.50
2023-04-24T18:36:28.729Z,7.20
2023-04-24T18:37:31.017Z,8.00
2023-04-24T18:38:33.096Z,9.80
2023-04-24T18:39:35.117Z,7.30
2023-04-24T18:40:37.225Z,8.80
2023-04-24T18:41:39.182Z,8.00
2023-04-24T18:42:41.418Z,6.80
2023-04-24T18:43:44.473Z,8.30
2023-04-24T18:44:46.693Z,7.00
2023-04-24T18:45:48.837Z,7.00
2023-04-24T18:46:51.041Z,7.80
2023-04-24T18:47:53.425Z,6.50
2023-04-24T18:48:55.580Z,7.20
2023-04-24T18:49:57.795Z,7.20
2023-04-24T18:50:59.919Z,8.90
2023-04-24T18:52:02.110Z,8.00
2023-04-24T18:53:04.420Z,7.90
2023-04-24T18:54:06.676Z,8.50
2023-04-24T18:55:11.796Z,9.40
2023-04-24T18:56:13.948Z,9.40
2023-04-24T18:57:15.959Z,7.30
2023-04-24T18:58:18.256Z,8.10
2023-04-24T18:59:20.347Z,7.40
2023-04-24T19:00:23.646Z,8.20
2023-04-24T19:01:25.786Z,5.30
2023-04-24T19:02:28.399Z,5.80
2023-04-24T19:03:31.347Z,8.40
2023-04-24T19:04:34.340Z,6.30
2023-04-24T19:05:36.644Z,8.10
2023-04-24T19:06:39.665Z,7.00
2023-04-24T19:07:42.003Z,6.80
2023-04-24T19:08:44.158Z,8.00
2023-04-24T19:09:46.411Z,7.40
2023-04-24T19:10:48.811Z,6.70
2023-04-24T19:11:51.056Z,5.10
2023-04-24T19:12:53.336Z,6.20
2023-04-24T19:13:55.688Z,6.00
2023-04-24T19:14:57.949Z,7.20
2023-04-24T19:16:00.469Z,8.00
2023-04-24T19:17:02.710Z,7.20
2023-04-24T19:18:04.984Z,8.20
2023-04-24T19:19:08.500Z,7.90
2023-04-24T19:20:11.799Z,6.50
2023-04-24T19:21:15.252Z,7.60
2023-04-24T19:22:19.139Z,6.70
2023-04-24T19:23:21.357Z,7.00
2023-04-24T19:24:24.725Z,6.90
2023-04-24T19:25:26.707Z,6.90
2023-04-24T19:26:28.732Z,8.70
2023-04-24T19:27:30.647Z,8.11
2023-04-24T19:28:32.826Z,6.60
2023-04-24T19:29:35.156Z,6.50
2023-04-24T19:30:37.920Z,7.30
2023-04-24T19:31:39.970Z,7.60
2023-04-24T19:32:42.566Z,6.70
2023-04-24T19:33:45.081Z,7.90
2023-04-24T19:34:47.388Z,5.90
2023-04-24T19:35:49.447Z,6.40
2023-04-24T19:36:51.686Z,7.60
2023-04-24T19:37:53.752Z,6.80
2023-04-24T19:38:56.009Z,5.50
2023-04-24T19:39:58.361Z,5.40
2023-04-24T19:41:00.586Z,6.10
2023-04-24T19:42:05.724Z,6.50
2023-04-24T19:43:07.888Z,6.70
2023-04-24T19:44:10.250Z,8.90
2023-04-24T19:45:12.665Z,6.40
2023-04-24T19:46:15.453Z,6.30
2023-04-24T19:47:18.077Z,8.40
2023-04-24T19:48:20.319Z,6.80
2023-04-24T19:49:22.578Z,8.00
2023-04-24T19:50:24.830Z,5.80
2023-04-24T19:51:26.905Z,7.90
2023-04-24T19:52:29.582Z,6.40
2023-04-24T19:53:31.805Z,6.30
2023-04-24T19:54:33.917Z,2.60
2023-04-24T19:55:36.191Z,6.00
2023-04-24T19:56:38.416Z,7.40
2023-04-24T19:57:40.430Z,7.40
2023-04-24T19:58:42.773Z,7.60
2023-04-24T19:59:44.800Z,6.80
2023-04-24T20:00:46.998Z,8.10
2023-04-24T20:01:49.198Z,4.90
2023-04-24T20:02:51.945Z,6.60
2023-04-24T20:03:54.926Z,6.40
2023-04-24T20:04:57.479Z,6.91
2023-04-24T20:06:00.393Z,6.73
2023-04-24T20:07:02.412Z,6.60
2023-04-24T20:08:04.591Z,7.40
2023-04-24T20:09:06.737Z,8.10
2023-04-24T20:10:11.959Z,6.50
2023-04-24T20:11:14.308Z,9.50
2023-04-24T20:12:16.502Z,5.60
2023-04-24T20:13:18.637Z,9.20
2023-04-24T20:14:21.188Z,8.90
2023-04-24T20:15:23.400Z,9.10
2023-04-24T20:16:25.866Z,9.60
2023-04-24T20:17:28.857Z,10.20
2023-04-24T20:18:30.934Z,10.30
2023-04-24T20:19:33.042Z,10.00
2023-04-24T20:20:35.673Z,6.20
2023-04-24T20:21:37.947Z,9.30
2023-04-24T20:22:41.949Z,8.50
2023-04-24T20:23:44.369Z,9.30
2023-04-24T20:24:46.656Z,8.70
2023-04-24T20:25:48.679Z,10.70
2023-04-24T20:26:51.329Z,10.50
2023-04-24T20:27:53.431Z,10.50
2023-04-24T20:28:55.510Z,12.10
2023-04-24T20:29:59.286Z,11.00
2023-04-24T20:31:01.593Z,12.20
2023-04-24T20:32:03.777Z,11.60
2023-04-24T20:33:06.044Z,11.20
2023-04-24T20:34:08.237Z,11.30
2023-04-24T20:35:10.559Z,12.90
2023-04-24T20:36:13.089Z,11.60
2023-04-24T20:37:15.228Z,11.70
2023-04-24T20:38:17.370Z,11.50
2023-04-24T20:39:19.696Z,11.60
2023-04-24T20:40:21.900Z,13.10
2023-04-24T20:41:23.974Z,13.20
2023-04-24T20:42:26.171Z,10.90
2023-04-24T20:43:29.282Z,12.80
2023-04-24T20:44:32.168Z,9.60
2023-04-24T20:45:34.169Z,12.40
2023-04-24T20:46:36.416Z,13.10
2023-04-24T20:47:40.518Z,11.50
2023-04-24T20:48:42.803Z,10.50
2023-04-24T20:49:45.110Z,11.30
2023-04-24T20:50:47.724Z,11.90
2023-04-24T20:51:49.827Z,12.10
2023-04-24T20:52:52.003Z,11.10
2023-04-24T20:53:55.293Z,8.20
2023-04-24T20:54:57.512Z,14.10
2023-04-24T20:55:59.621Z,11.90
2023-04-24T20:57:01.743Z,7.50
2023-04-24T20:58:03.782Z,10.20
2023-04-24T20:59:05.910Z,10.90
2023-04-24T21:00:11.681Z,10.90
2023-04-24T21:01:14.722Z,12.40
2023-04-24T21:02:17.179Z,10.80
2023-04-24T21:03:20.039Z,12.00
2023-04-24T21:04:22.459Z,11.20
2023-04-24T21:05:24.916Z,11.10
2023-04-24T21:06:27.181Z,11.30
2023-04-24T21:07:29.458Z,10.50
2023-04-24T21:08:31.664Z,10.10
2023-04-24T21:09:34.047Z,10.90
2023-04-24T21:10:36.368Z,13.50
2023-04-24T21:11:38.539Z,9.20
2023-04-24T21:12:40.458Z,10.50
2023-04-24T21:13:42.342Z,10.44
2023-04-24T21:14:44.868Z,11.30
2023-04-24T21:15:46.956Z,7.10
2023-04-24T21:16:49.233Z,11.90
2023-04-24T21:17:51.944Z,11.27
2023-04-24T21:18:54.129Z,10.60
2023-04-24T21:19:56.120Z,11.70
2023-04-24T21:20:59.512Z,11.20
2023-04-24T21:22:01.507Z,13.10
2023-04-24T21:23:03.633Z,7.50
2023-04-24T21:24:09.254Z,13.00
2023-04-24T21:25:11.301Z,11.10
2023-04-24T21:26:13.784Z,10.40
2023-04-24T21:27:16.174Z,11.90
2023-04-24T21:28:18.175Z,11.50
2023-04-24T21:29:20.584Z,14.67
2023-04-24T21:30:24.589Z,11.90
2023-04-24T21:31:26.836Z,12.10
2023-04-24T21:32:29.422Z,12.80
2023-04-24T21:33:31.542Z,11.70
2023-04-24T21:34:33.696Z,11.90
2023-04-24T21:35:37.754Z,12.50
2023-04-24T21:36:40.911Z,13.40
2023-04-24T21:37:43.182Z,13.10
2023-04-24T21:38:45.400Z,9.90
2023-04-24T21:39:47.529Z,12.00
2023-04-24T21:40:50.232Z,13.60
2023-04-24T21:41:52.403Z,9.90
2023-04-24T21:42:55.723Z,12.60
2023-04-24T21:43:58.309Z,14.30
2023-04-24T21:45:00.689Z,14.80
2023-04-24T21:46:02.867Z,12.60
2023-04-24T21:47:05.864Z,12.60
2023-04-24T21:48:08.029Z,13.20
2023-04-24T21:49:10.302Z,11.50
2023-04-24T21:50:13.068Z,12.90
2023-04-24T21:51:15.115Z,11.60
2023-04-24T21:52:17.014Z,12.50
2023-04-24T21:53:18.861Z,12.56
2023-04-24T21:54:21.105Z,13.50
2023-04-24T21:55:24.394Z,13.60
2023-04-24T21:56:26.547Z,13.20
2023-04-24T21:57:28.875Z,13.20
2023-04-24T21:58:30.954Z,13.00
2023-04-24T21:59:33.979Z,7.80
2023-04-24T22:00:36.366Z,13.60
2023-04-24T22:01:38.580Z,12.60
2023-04-24T22:02:41.428Z,13.36
2023-04-24T22:03:44.099Z,12.27
2023-04-24T22:04:46.774Z,13.40
2023-04-24T22:05:50.017Z,14.00
2023-04-24T22:06:52.424Z,14.00
2023-04-24T22:07:54.458Z,12.30
2023-04-24T22:08:56.578Z,12.70
2023-04-24T22:09:58.949Z,14.70
2023-04-24T22:11:01.963Z,12.82
2023-04-24T22:12:05.985Z,14.60
2023-04-24T22:13:08.254Z,12.30
2023-04-24T22:14:10.381Z,14.60
2023-04-24T22:15:12.508Z,12.60
2023-04-24T22:16:16.314Z,13.50
2023-04-24T22:17:18.940Z,15.70
2023-04-24T22:18:21.250Z,15.00
2023-04-24T22:19:25.140Z,12.90
2023-04-24T22:20:27.503Z,14.10
2023-04-24T22:21:29.802Z,13.20
2023-04-24T22:22:31.921Z,12.10
2023-04-24T22:23:34.363Z,12.30
2023-04-24T22:24:36.578Z,13.50
2023-04-24T22:25:38.885Z,13.70
2023-04-24T22:26:40.974Z,12.90
2023-04-24T22:27:43.995Z,11.90
2023-04-24T22:28:48.095Z,15.91
2023-04-24T22:29:50.329Z,14.20
2023-04-24T22:30:52.559Z,14.40
2023-04-24T22:31:54.881Z,12.90
2023-04-24T22:32:58.001Z,14.50
2023-04-24T22:34:00.308Z,12.30
2023-04-24T22:35:02.539Z,8.50
2023-04-24T22:36:07.944Z,12.10
2023-04-24T22:37:10.175Z,13.20
2023-04-24T22:38:12.499Z,14.80
2023-04-24T22:39:14.518Z,15.60
2023-04-24T22:40:17.136Z,12.50
2023-04-24T22:41:19.278Z,12.40
2023-04-24T22:42:21.446Z,13.70
2023-04-24T22:43:23.442Z,15.10
2023-04-24T22:44:25.460Z,13.20
2023-04-24T22:45:27.777Z,12.60
2023-04-24T22:46:29.782Z,15.90
2023-04-24T22:47:32.105Z,13.20
2023-04-24T22:48:34.864Z,13.90
2023-04-24T22:49:37.526Z,13.73
2023-04-24T22:50:39.701Z,13.80
2023-04-24T22:51:41.817Z,15.30
2023-04-24T22:52:43.972Z,14.90
2023-04-24T22:53:46.427Z,13.40
2023-04-24T22:54:49.387Z,16.00
2023-04-24T22:55:51.609Z,14.10
2023-04-24T22:56:53.831Z,13.70
2023-04-24T22:57:55.945Z,12.60
2023-04-24T22:58:58.546Z,12.80
2023-04-24T23:00:00.675Z,13.50
2023-04-24T23:01:03.158Z,12.60
2023-04-24T23:02:06.367Z,12.50
2023-04-24T23:03:08.968Z,12.20
2023-04-24T23:04:11.826Z,14.40
2023-04-24T23:05:14.508Z,13.45
2023-04-24T23:06:18.224Z,12.50
2023-04-24T23:07:20.262Z,12.20
2023-04-24T23:08:22.587Z,13.20
2023-04-24T23:09:24.725Z,12.70
2023-04-24T23:10:27.755Z,10.60
2023-04-24T23:11:29.854Z,12.36
2023-04-24T23:12:32.242Z,13.90
2023-04-24T23:13:34.274Z,11.10
2023-04-24T23:14:36.696Z,12.90
2023-04-24T23:15:39.896Z,12.50
2023-04-24T23:16:43.176Z,11.40
2023-04-24T23:17:45.401Z,10.90
2023-04-24T23:18:47.693Z,12.30
2023-04-24T23:19:49.754Z,9.70
2023-04-24T23:20:51.721Z,13.10
2023-04-24T23:21:53.874Z,13.60
2023-04-24T23:22:56.085Z,12.60
2023-04-24T23:23:58.343Z,11.50
2023-04-24T23:25:02.250Z,11.70
2023-04-24T23:26:04.747Z,12.20
2023-04-24T23:27:06.967Z,13.70
2023-04-24T23:28:10.097Z,13.70
2023-04-24T23:29:12.433Z,15.20
2023-04-24T23:30:14.837Z,12.20
2023-04-24T23:31:17.048Z,16.50
2023-04-24T23:32:19.246Z,15.60
2023-04-24T23:33:21.843Z,17.50
2023-04-24T23:34:24.022Z,12.40
2023-04-24T23:35:26.144Z,16.60
2023-04-24T23:36:30.245Z,15.60
2023-04-24T23:37:32.462Z,16.70
2023-04-24T23:38:43.183Z,15.80
2023-04-24T23:39:39.029Z,14.40
2023-04-24T23:40:41.448Z,13.60
2023-04-24T23:41:44.282Z,15.00
2023-04-24T23:42:49.627Z,15.82
2023-04-24T23:43:50.940Z,17.30
2023-04-24T23:44:54.057Z,15.30
2023-04-24T23:45:56.283Z,14.40
2023-04-24T23:46:58.357Z,12.70
2023-04-24T23:48:00.549Z,0.40
2023-04-24T23:49:03.426Z,12.10
2023-04-24T23:50:08.826Z,16.09
2023-04-24T23:51:11.060Z,12.60
2023-04-24T23:52:13.306Z,15.70
2023-04-24T23:53:15.315Z,14.00
2023-04-24T23:54:17.590Z,13.70
2023-04-24T23:55:19.904Z,10.50
2023-04-24T23:56:22.052Z,16.60
2023-04-24T23:57:24.351Z,17.60
2023-04-24T23:58:27.709Z,16.00
2023-04-24T23:59:30.048Z,16.30
